Flight Track Log - Related Links

Times and Time Zones

All times are in EDT time to prevent confusion due to time zone crossing. See the CHH7142 flight status page for this flight to view local times or setup timezone preferences in your user account.

Time Position Orientation Groundspeed Altitude Reporting Facility
EDT Latitude Longitude Course Direction KTS MPH feet Rate Location/Type
Thu 10:01:00 AM 30.6593 104.0372 44° Northeast  Level Estimated
Thu 10:02:00 AM 30.7400 104.1274 44° Northeast  Level Estimated
Thu 10:03:00 AM 30.8206 104.2178 44° Northeast  Level Estimated
Thu 10:04:00 AM 30.9012 104.3084 44° Northeast  Level Estimated
Thu 10:05:00 AM 30.9817 104.3991 44° Northeast  Level Estimated
Thu 10:06:00 AM 31.0622 104.4900 44° Northeast  Level Estimated
Thu 10:07:00 AM 31.1426 104.5810 44° Northeast  Level Estimated
Thu 10:08:00 AM 31.2229 104.6721 44° Northeast  Level Estimated
Thu 10:09:00 AM 31.3031 104.7635 44° Northeast  Level Estimated
Thu 10:10:00 AM 31.3833 104.8549 44° Northeast  Level Estimated
Thu 10:11:00 AM 31.4635 104.9466 44° Northeast  Level Estimated
Thu 10:12:00 AM 31.5435 105.0384 44° Northeast  Level Estimated
Thu 10:13:00 AM 31.6235 105.1303 44° Northeast  Level Estimated
Thu 10:14:00 AM 31.7034 105.2224 44° Northeast  Level Estimated
Thu 10:15:00 AM 31.7833 105.3147 44° Northeast  Level Estimated
Thu 10:16:00 AM 31.8631 105.4071 45° Northeast  Level Estimated
Thu 10:17:00 AM 31.9429 105.4997 45° Northeast  Level Estimated
Thu 10:18:00 AM 32.0225 105.5925 45° Northeast  Level Estimated
Thu 10:19:00 AM 32.0941 105.6760 45° Northeast  Level Estimated
Thu 10:20:00 AM 32.1656 105.7597 45° Northeast  Level Estimated
Thu 10:21:00 AM 32.2371 105.8435 45° Northeast  Level Estimated
Thu 10:22:00 AM 32.3085 105.9274 45° Northeast  Level Estimated
Thu 10:23:00 AM 32.3799 106.0115 45° Northeast  Level Estimated
Thu 10:24:00 AM 32.4512 106.0957 45° Northeast  Level Estimated
Thu 10:25:00 AM 32.5224 106.1800 45° Northeast  Level Estimated
Thu 10:26:00 AM 32.5936 106.2645 45° Northeast  Level Estimated
Thu 10:27:00 AM 32.6648 106.3491 45° Northeast  Level Estimated
Thu 10:28:00 AM 32.7358 106.4338 45° Northeast  Level Estimated
Thu 10:29:00 AM 32.8069 106.5187 45° Northeast  Level Estimated
Thu 10:30:00 AM 32.8778 106.6037 45° Northeast  Level Estimated
Thu 10:31:00 AM 32.9487 106.6889 45° Northeast  Level Estimated
Thu 10:32:00 AM 33.0196 106.7741 45° Northeast  Level Estimated
Thu 10:33:00 AM 33.0904 106.8596 45° Northeast  Level Estimated
Thu 10:34:00 AM 33.1611 106.9451 45° Northeast  Level Estimated
Thu 10:35:00 AM 33.2318 107.0308 45° Northeast  Level Estimated
Thu 10:36:00 AM 33.3024 107.1167 45° Northeast  Level Estimated
Thu 10:37:00 AM 33.3730 107.2026 45° Northeast  Level Estimated
Thu 10:38:00 AM 33.4435 107.2887 46° Northeast  Level Estimated
Thu 10:39:00 AM 33.5139 107.3750 46° Northeast  Level Estimated
Thu 10:40:00 AM 33.5843 107.4614 46° Northeast  Level Estimated
Thu 10:41:00 AM 33.6546 107.5479 46° Northeast  Level Estimated
Thu 10:42:00 AM 33.7248 107.6346 46° Northeast  Level Estimated
Thu 10:43:00 AM 33.7950 107.7214 46° Northeast  Level Estimated
Thu 10:44:00 AM 33.8652 107.8084 46° Northeast  Level Estimated
Thu 10:45:00 AM 33.9352 107.8955 46° Northeast  Level Estimated
Thu 10:46:00 AM 34.0053 107.9827 46° Northeast  Level Estimated
Thu 10:47:00 AM 34.0752 108.0701 46° Northeast  Level Estimated
Thu 10:48:00 AM 34.1451 108.1577 46° Northeast  Level Estimated
Thu 10:49:00 AM 34.2149 108.2453 46° Northeast  Level Estimated
Thu 10:50:00 AM 34.2847 108.3332 46° Northeast  Level Estimated
Thu 10:51:00 AM 34.3544 108.4211 46° Northeast  Level Estimated
Thu 10:52:00 AM 34.4240 108.5092 46° Northeast  Level Estimated
Thu 10:53:00 AM 34.4936 108.5975 46° Northeast  Level Estimated
Thu 10:54:00 AM 34.5631 108.6859 46° Northeast  Level Estimated
Thu 10:55:00 AM 34.6326 108.7745 46° Northeast  Level Estimated
Thu 10:56:00 AM 34.7020 108.8632 46° Northeast  Level Estimated
Thu 10:57:00 AM 34.7713 108.9520 46° Northeast  Level Estimated
Thu 10:58:00 AM 34.8405 109.0411 47° Northeast  Level Estimated
Thu 10:59:00 AM 34.9097 109.1302 47° Northeast  Level Estimated
Thu 11:00:00 AM 34.9789 109.2195 47° Northeast  Level Estimated
Thu 11:01:00 AM 35.0479 109.3090 47° Northeast  Level Estimated
Thu 11:02:00 AM 35.1169 109.3986 47° Northeast  Level Estimated
Thu 11:03:00 AM 35.1858 109.4883 47° Northeast  Level Estimated
Thu 11:04:00 AM 35.2547 109.5782 47° Northeast  Level Estimated
Thu 11:05:00 AM 35.3235 109.6683 47° Northeast  Level Estimated
Thu 11:06:00 AM 35.3922 109.7585 47° Northeast  Level Estimated
Thu 11:07:00 AM 35.4609 109.8489 47° Northeast  Level Estimated
Thu 11:08:00 AM 35.5295 109.9394 47° Northeast  Level Estimated
Thu 11:09:00 AM 35.5980 110.0301 47° Northeast  Level Estimated
Thu 11:10:00 AM 35.6665 110.1209 47° Northeast  Level Estimated
Thu 11:11:00 AM 35.7348 110.2119 47° Northeast  Level Estimated
Thu 11:12:00 AM 35.8032 110.3031 47° Northeast  Level Estimated
Thu 11:13:00 AM 35.8714 110.3944 47° Northeast  Level Estimated
Thu 11:14:00 AM 35.9396 110.4858 47° Northeast  Level Estimated
Thu 11:15:00 AM 36.0077 110.5775 47° Northeast  Level Estimated
Thu 11:16:00 AM 36.0757 110.6693 47° Northeast  Level Estimated
Thu 11:17:00 AM 36.1437 110.7612 48° Northeast  Level Estimated
Thu 11:18:00 AM 36.2116 110.8533 48° Northeast  Level Estimated
Thu 11:19:00 AM 36.2795 110.9455 48° Northeast  Level Estimated
Thu 11:20:00 AM 36.3472 111.0380 48° Northeast  Level Estimated
Thu 11:21:00 AM 36.4149 111.1305 48° Northeast  Level Estimated
Thu 11:22:00 AM 36.4825 111.2233 48° Northeast  Level Estimated
Thu 11:23:00 AM 36.5501 111.3162 48° Northeast  Level Estimated
Thu 11:24:00 AM 36.6175 111.4092 48° Northeast  Level Estimated
Thu 11:25:00 AM 36.6850 111.5025 48° Northeast  Level Estimated
Thu 11:26:00 AM 36.7523 111.5959 48° Northeast  Level Estimated
Thu 11:27:00 AM 36.8195 111.6894 48° Northeast  Level Estimated
Thu 11:28:00 AM 36.8867 111.7831 48° Northeast  Level Estimated
Thu 11:29:00 AM 36.9538 111.8770 48° Northeast  Level Estimated
Thu 11:30:00 AM 37.0209 111.9711 48° Northeast  Level Estimated
Thu 11:31:00 AM 37.0878 112.0653 48° Northeast  Level Estimated
Thu 11:32:00 AM 37.1547 112.1597 48° Northeast  Level Estimated
Thu 11:33:00 AM 37.2215 112.2542 48° Northeast  Level Estimated
Thu 11:34:00 AM 37.2882 112.3489 48° Northeast  Level Estimated
Thu 11:35:00 AM 37.3549 112.4438 49° Northeast  Level Estimated
Thu 11:36:00 AM 37.4215 112.5389 49° Northeast  Level Estimated
Thu 11:37:00 AM 37.4880 112.6341 49° Northeast  Level Estimated
Thu 11:38:00 AM 37.5544 112.7295 49° Northeast  Level Estimated
Thu 11:39:00 AM 37.6208 112.8251 49° Northeast  Level Estimated
Thu 11:40:00 AM 37.6871 112.9208 49° Northeast  Level Estimated
Thu 11:41:00 AM 37.7533 113.0167 49° Northeast  Level Estimated
Thu 11:42:00 AM 37.8194 113.1128 49° Northeast  Level Estimated
Thu 11:43:00 AM 37.8854 113.2090 49° Northeast  Level Estimated
Thu 11:44:00 AM 37.9514 113.3054 49° Northeast  Level Estimated
Thu 11:45:00 AM 38.0173 113.4020 49° Northeast  Level Estimated
Thu 11:46:00 AM 38.0831 113.4988 49° Northeast  Level Estimated
Thu 11:47:00 AM 38.1488 113.5957 49° Northeast  Level Estimated
Thu 11:48:00 AM 38.2145 113.6929 49° Northeast  Level Estimated
Thu 11:49:00 AM 38.2820 113.7930 49° Northeast  Level Estimated
Thu 11:50:00 AM 38.3494 113.8934 49° Northeast  Level Estimated
Thu 11:51:00 AM 38.4167 113.9939 49° Northeast  Level Estimated
Thu 11:52:00 AM 38.4840 114.0947 50° Northeast  Level Estimated
Thu 11:53:00 AM 38.5511 114.1956 50° Northeast  Level Estimated
Thu 11:54:00 AM 38.6182 114.2967 50° Northeast  Level Estimated
Thu 11:55:00 AM 38.6852 114.3980 50° Northeast  Level Estimated
Thu 11:56:00 AM 38.7521 114.4995 50° Northeast  Level Estimated
Thu 11:57:00 AM 38.8189 114.6012 50° Northeast  Level Estimated
Thu 11:58:00 AM 38.8857 114.7031 50° Northeast  Level Estimated
Thu 11:59:00 AM 38.9523 114.8052 50° Northeast  Level Estimated
Thu 12:00:00 PM 39.0188 114.9074 50° Northeast  Level Estimated
Thu 12:01:00 PM 39.0853 115.0099 50° Northeast  Level Estimated
Thu 12:02:00 PM 39.1517 115.1125 50° Northeast  Level Estimated
Thu 12:03:00 PM 39.2179 115.2153 50° Northeast  Level Estimated
Thu 12:04:00 PM 39.2841 115.3184 50° Northeast  Level Estimated
Thu 12:05:00 PM 39.3502 115.4216 50° Northeast  Level Estimated
Thu 12:06:00 PM 39.4162 115.5250 50° Northeast  Level Estimated
Thu 12:07:00 PM 39.4822 115.6286 50° Northeast  Level Estimated
Thu 12:08:00 PM 39.5480 115.7325 51° Northeast  Level Estimated
Thu 12:09:00 PM 39.6137 115.8365 51° Northeast  Level Estimated
Thu 12:10:00 PM 39.6794 115.9407 51° Northeast  Level Estimated
Thu 12:11:00 PM 39.7449 116.0451 51° Northeast  Level Estimated
Thu 12:12:00 PM 39.8103 116.1497 51° Northeast  Level Estimated
Thu 12:13:00 PM 39.8757 116.2545 51° Northeast  Level Estimated
Thu 12:14:00 PM 39.9410 116.3595 51° Northeast  Level Estimated
Thu 12:15:00 PM 40.0061 116.4647 51° Northeast  Level Estimated
Thu 12:16:00 PM 40.0712 116.5701 51° Northeast  Level Estimated

Login

Don't have an account? Register now (free) for customized features, flight alerts, and more!